createdAt,value
2022-10-04T00:01:55.966Z,15.34
2022-10-04T00:04:42.295Z,15.03
2022-10-04T00:07:11.805Z,15.08
2022-10-04T00:09:47.459Z,14.94
2022-10-04T00:12:28.580Z,15.01
2022-10-04T00:15:08.114Z,14.95
2022-10-04T00:17:37.538Z,14.91
2022-10-04T00:20:42.587Z,15.02
2022-10-04T00:23:24.625Z,14.90
2022-10-04T00:26:06.354Z,14.92
2022-10-04T00:28:35.950Z,14.99
2022-10-04T00:31:08.674Z,14.79
2022-10-04T00:33:44.034Z,14.79
2022-10-04T00:36:25.993Z,14.70
2022-10-04T00:39:07.783Z,14.63
2022-10-04T00:41:57.814Z,14.63
2022-10-04T00:44:58.810Z,14.92
2022-10-04T00:47:43.926Z,15.49
2022-10-04T00:50:28.806Z,14.97
2022-10-04T00:52:59.069Z,15.90
2022-10-04T00:55:35.135Z,15.48
2022-10-04T00:58:05.596Z,15.06
2022-10-04T01:00:33.805Z,14.80
2022-10-04T01:03:14.459Z,14.72
2022-10-04T01:05:55.781Z,14.89
2022-10-04T01:08:27.261Z,15.01
2022-10-04T01:11:39.161Z,15.21
2022-10-04T01:14:26.513Z,14.84
2022-10-04T01:16:53.463Z,14.77
2022-10-04T01:19:23.130Z,15.24
2022-10-04T01:22:04.196Z,15.04
2022-10-04T01:24:42.512Z,14.73
2022-10-04T01:27:42.834Z,14.70
2022-10-04T01:30:17.018Z,14.65
2022-10-04T01:32:45.327Z,14.93
2022-10-04T01:35:14.016Z,15.46
2022-10-04T01:37:40.991Z,15.80
2022-10-04T01:40:09.518Z,15.75
2022-10-04T01:42:38.185Z,15.98
2022-10-04T01:45:11.947Z,15.44
2022-10-04T01:47:54.143Z,15.53
2022-10-04T01:50:45.563Z,15.79
2022-10-04T01:53:19.846Z,15.12
2022-10-04T01:55:54.558Z,14.80
2022-10-04T01:58:26.726Z,15.14
2022-10-04T02:00:59.277Z,15.17
2022-10-04T02:03:41.541Z,14.92
2022-10-04T02:06:10.119Z,15.42
2022-10-04T02:08:44.342Z,15.51
2022-10-04T02:11:20.161Z,15.73
2022-10-04T02:13:50.560Z,15.82
2022-10-04T02:16:18.991Z,15.99
2022-10-04T02:18:46.039Z,15.70
2022-10-04T02:21:15.285Z,15.07
2022-10-04T02:23:42.505Z,14.79
2022-10-04T02:26:11.349Z,14.57
2022-10-04T02:28:40.338Z,14.63
2022-10-04T02:31:27.387Z,14.75
2022-10-04T02:33:57.872Z,15.56
2022-10-04T02:36:28.035Z,15.72
2022-10-04T02:39:02.108Z,15.81
2022-10-04T02:41:43.643Z,15.92
2022-10-04T02:44:20.489Z,15.74
2022-10-04T02:46:54.059Z,15.74
2022-10-04T02:49:32.580Z,15.78
2022-10-04T02:52:05.948Z,15.98
2022-10-04T02:54:45.122Z,15.88
2022-10-04T02:57:23.113Z,15.84
2022-10-04T02:59:50.810Z,16.06
2022-10-04T03:02:35.679Z,15.85
2022-10-04T03:05:43.729Z,15.82
2022-10-04T03:08:11.983Z,15.52
2022-10-04T03:10:40.696Z,15.04
2022-10-04T03:13:07.435Z,15.33
2022-10-04T03:15:34.212Z,15.87
2022-10-04T03:18:01.075Z,15.88
2022-10-04T03:20:28.155Z,15.51
2022-10-04T03:22:56.487Z,15.75
2022-10-04T03:25:30.529Z,15.82
2022-10-04T03:28:02.115Z,15.19
2022-10-04T03:30:30.159Z,15.39
2022-10-04T03:32:57.161Z,15.69
2022-10-04T03:35:37.686Z,15.64
2022-10-04T03:38:09.940Z,15.75
2022-10-04T03:40:38.674Z,15.74
2022-10-04T03:43:06.275Z,15.57
2022-10-04T03:45:35.276Z,15.36
2022-10-04T03:48:06.661Z,15.12
2022-10-04T03:50:39.338Z,15.35
2022-10-04T03:53:24.978Z,15.58
2022-10-04T03:55:52.929Z,15.48
2022-10-04T03:58:20.764Z,15.56
2022-10-04T04:01:16.282Z,15.30
2022-10-04T04:03:54.077Z,14.97
2022-10-04T04:06:22.555Z,15.32
2022-10-04T04:08:53.226Z,15.03
2022-10-04T04:11:28.301Z,14.77
2022-10-04T04:14:08.434Z,14.75
2022-10-04T04:16:37.077Z,14.73
2022-10-04T04:19:11.878Z,14.74
2022-10-04T04:21:39.243Z,14.69
2022-10-04T04:24:28.203Z,14.73
2022-10-04T04:26:59.545Z,14.79
2022-10-04T04:29:42.735Z,14.77
2022-10-04T04:32:28.529Z,14.53
2022-10-04T04:35:00.703Z,14.53
2022-10-04T04:37:27.291Z,14.54
2022-10-04T04:39:57.798Z,14.68
2022-10-04T04:42:33.308Z,14.58
2022-10-04T04:45:01.874Z,14.67
2022-10-04T04:47:33.864Z,14.71
2022-10-04T04:50:18.748Z,14.93
2022-10-04T04:53:20.289Z,14.61
2022-10-04T04:56:10.223Z,14.59
2022-10-04T04:58:42.425Z,14.84
2022-10-04T05:01:25.868Z,14.79
2022-10-04T05:04:04.355Z,15.28
2022-10-04T05:06:32.663Z,15.16
2022-10-04T05:08:59.589Z,14.81
2022-10-04T05:11:31.143Z,15.49
2022-10-04T05:14:09.090Z,15.45
2022-10-04T05:16:55.270Z,15.28
2022-10-04T05:19:32.349Z,14.84
2022-10-04T05:22:02.553Z,14.87
2022-10-04T05:24:32.580Z,15.02
2022-10-04T05:27:05.941Z,15.30
2022-10-04T05:29:38.073Z,15.08
2022-10-04T05:32:37.764Z,15.09
2022-10-04T05:35:16.406Z,14.79
2022-10-04T05:38:04.664Z,14.69
2022-10-04T05:40:39.437Z,14.78
2022-10-04T05:43:25.106Z,14.78
2022-10-04T05:46:10.259Z,14.99
2022-10-04T05:48:39.493Z,14.76
2022-10-04T05:51:21.430Z,14.70
2022-10-04T05:53:49.964Z,14.94
2022-10-04T05:56:34.975Z,15.10
2022-10-04T05:59:20.086Z,15.51
2022-10-04T06:02:37.224Z,15.74
2022-10-04T06:05:28.181Z,15.88
2022-10-04T06:08:09.466Z,15.53
2022-10-04T06:11:23.719Z,15.54
2022-10-04T06:13:52.642Z,15.47
2022-10-04T06:16:41.397Z,15.55
2022-10-04T06:19:47.329Z,15.36
2022-10-04T06:22:19.375Z,15.16
2022-10-04T06:24:54.740Z,15.13
2022-10-04T06:27:30.851Z,15.08
2022-10-04T06:30:07.309Z,15.06
2022-10-04T06:32:34.301Z,14.87
2022-10-04T06:35:15.906Z,15.10
2022-10-04T06:38:04.095Z,14.99
2022-10-04T06:40:52.444Z,15.18
2022-10-04T06:43:18.904Z,15.02
2022-10-04T06:46:04.008Z,15.09
2022-10-04T06:49:02.377Z,15.67
2022-10-04T06:51:47.070Z,15.70
2022-10-04T06:54:49.065Z,15.81
2022-10-04T06:58:00.358Z,16.41
2022-10-04T07:00:29.809Z,16.33
2022-10-04T07:03:15.493Z,16.81
2022-10-04T07:05:58.020Z,16.98
2022-10-04T07:08:31.480Z,17.50
2022-10-04T07:11:53.529Z,17.51
2022-10-04T07:14:37.695Z,17.27
2022-10-04T07:17:27.699Z,17.06
2022-10-04T07:19:55.119Z,17.03
2022-10-04T07:22:27.842Z,17.76
2022-10-04T07:25:00.291Z,17.63
2022-10-04T07:27:36.833Z,17.60
2022-10-04T07:30:16.218Z,17.68
2022-10-04T07:32:50.462Z,17.72
2022-10-04T07:35:33.870Z,17.44
2022-10-04T07:38:15.982Z,17.36
2022-10-04T07:41:03.570Z,17.48
2022-10-04T07:43:33.516Z,17.40
2022-10-04T07:46:12.536Z,17.35
2022-10-04T07:48:43.093Z,17.16
2022-10-04T07:51:27.915Z,17.04
2022-10-04T07:54:21.607Z,17.16
2022-10-04T07:56:58.114Z,17.35
2022-10-04T08:00:05.471Z,17.17
2022-10-04T08:02:58.638Z,17.37
2022-10-04T08:05:45.671Z,17.69
2022-10-04T08:08:39.432Z,17.58
2022-10-04T08:11:18.356Z,17.46
2022-10-04T08:13:56.473Z,17.29
2022-10-04T08:16:43.376Z,17.49
2022-10-04T08:19:29.160Z,17.46
2022-10-04T08:22:30.230Z,17.62
2022-10-04T08:25:02.660Z,17.95
2022-10-04T08:28:09.186Z,18.04
2022-10-04T08:30:46.681Z,17.99
2022-10-04T08:33:23.775Z,17.84
2022-10-04T08:36:08.545Z,18.11
2022-10-04T08:38:50.490Z,18.44
2022-10-04T08:41:45.736Z,18.54
2022-10-04T08:44:46.782Z,18.94
2022-10-04T08:47:58.322Z,19.54
2022-10-04T08:50:34.894Z,19.54
2022-10-04T08:53:38.600Z,19.59
2022-10-04T08:56:45.871Z,19.54
2022-10-04T08:59:18.456Z,19.52
2022-10-04T09:02:00.171Z,19.67
2022-10-04T09:04:42.131Z,19.80
2022-10-04T09:07:25.093Z,19.78
2022-10-04T09:10:11.919Z,19.56
2022-10-04T09:13:01.625Z,19.69
2022-10-04T09:15:37.271Z,19.78
2022-10-04T09:18:13.232Z,19.50
2022-10-04T09:20:47.960Z,19.67
2022-10-04T09:23:30.722Z,19.99
2022-10-04T09:26:15.376Z,19.83
2022-10-04T09:29:20.931Z,19.73
2022-10-04T09:32:32.889Z,19.70
2022-10-04T09:35:24.273Z,19.78
2022-10-04T09:38:05.380Z,19.81
2022-10-04T09:41:09.366Z,20.02
2022-10-04T09:44:08.695Z,19.89
2022-10-04T09:46:58.685Z,19.77
2022-10-04T09:49:35.219Z,19.97
2022-10-04T09:52:17.515Z,20.29
2022-10-04T09:55:07.968Z,20.17
2022-10-04T09:57:53.598Z,20.45
2022-10-04T10:00:29.474Z,19.97
2022-10-04T10:03:11.022Z,20.33
2022-10-04T10:05:44.246Z,19.79
2022-10-04T10:08:48.404Z,20.52
2022-10-04T10:11:55.597Z,20.64
2022-10-04T10:14:54.580Z,20.60
2022-10-04T10:17:37.355Z,20.49
2022-10-04T10:20:10.023Z,20.73
2022-10-04T10:22:55.472Z,20.67
2022-10-04T10:25:36.963Z,20.66
2022-10-04T10:28:14.939Z,20.75
2022-10-04T10:31:19.345Z,20.83
2022-10-04T10:34:34.865Z,21.70
2022-10-04T10:37:36.074Z,22.09
2022-10-04T10:40:25.403Z,21.73
2022-10-04T10:43:07.066Z,22.52
2022-10-04T10:46:27.670Z,22.17
2022-10-04T10:49:20.089Z,22.52
2022-10-04T10:52:26.335Z,21.98
2022-10-04T10:55:22.697Z,22.78
2022-10-04T10:57:52.036Z,22.88
2022-10-04T11:00:24.571Z,22.47
2022-10-04T11:03:13.563Z,22.70
2022-10-04T11:06:00.148Z,21.95
2022-10-04T11:08:30.014Z,21.83
2022-10-04T11:11:27.658Z,22.01
2022-10-04T11:14:11.859Z,22.47
2022-10-04T11:17:15.487Z,22.61
2022-10-04T11:20:02.932Z,21.89
2022-10-04T11:23:07.352Z,22.64
2022-10-04T11:25:51.161Z,22.71
2022-10-04T11:28:18.395Z,22.43
2022-10-04T11:31:23.930Z,22.66
2022-10-04T11:34:16.372Z,22.47
2022-10-04T11:36:57.361Z,22.25
2022-10-04T11:40:17.919Z,22.55
2022-10-04T11:43:03.176Z,22.19
2022-10-04T11:46:11.171Z,22.14
2022-10-04T11:48:57.381Z,22.29
2022-10-04T11:51:26.150Z,22.10
2022-10-04T11:54:04.088Z,21.72
2022-10-04T11:56:45.800Z,21.74
2022-10-04T11:59:12.512Z,21.57
2022-10-04T12:02:00.028Z,21.49
2022-10-04T12:04:57.948Z,21.95
2022-10-04T12:07:57.249Z,21.98
2022-10-04T12:10:37.286Z,21.94
2022-10-04T12:13:25.989Z,22.07
2022-10-04T12:16:19.082Z,21.98
2022-10-04T12:19:27.935Z,22.12
2022-10-04T12:22:00.747Z,21.94
2022-10-04T12:24:35.713Z,22.61
2022-10-04T12:27:27.477Z,22.40
2022-10-04T12:30:20.826Z,21.99
2022-10-04T12:32:58.440Z,22.04
2022-10-04T12:35:25.122Z,22.14
2022-10-04T12:38:33.058Z,22.86
2022-10-04T12:41:52.390Z,22.58
2022-10-04T12:44:45.739Z,22.62
2022-10-04T12:47:44.797Z,22.34
2022-10-04T12:50:36.118Z,21.81
2022-10-04T12:53:21.683Z,22.04
2022-10-04T12:56:07.548Z,22.78
2022-10-04T12:58:46.847Z,21.98
2022-10-04T13:01:41.409Z,22.25
2022-10-04T13:04:20.242Z,22.66
2022-10-04T13:06:53.153Z,21.79
2022-10-04T13:09:42.003Z,22.29
2022-10-04T13:12:11.477Z,21.89
2022-10-04T13:14:56.774Z,21.96
2022-10-04T13:17:36.100Z,22.15
2022-10-04T13:20:21.797Z,22.50
2022-10-04T13:22:58.060Z,22.47
2022-10-04T13:25:45.675Z,22.41
2022-10-04T13:28:25.043Z,22.02
2022-10-04T13:31:10.403Z,22.30
2022-10-04T13:33:51.989Z,22.29
2022-10-04T13:37:01.181Z,22.26
2022-10-04T13:39:46.449Z,22.28
2022-10-04T13:42:34.509Z,22.17
2022-10-04T13:45:13.015Z,21.42
2022-10-04T13:47:51.537Z,21.70
2022-10-04T13:50:48.741Z,21.34
2022-10-04T13:53:53.789Z,21.95
2022-10-04T13:56:49.035Z,21.86
2022-10-04T13:59:46.719Z,21.29
2022-10-04T14:02:19.301Z,21.72
2022-10-04T14:04:57.179Z,21.99
2022-10-04T14:07:23.738Z,21.92
2022-10-04T14:10:02.772Z,21.86
2022-10-04T14:12:49.768Z,21.85
2022-10-04T14:15:46.278Z,21.84
2022-10-04T14:18:13.037Z,21.84
2022-10-04T14:21:18.890Z,21.60
2022-10-04T14:24:07.768Z,21.28
2022-10-04T14:26:40.253Z,21.17
2022-10-04T14:29:22.226Z,21.71
2022-10-04T14:32:07.245Z,21.76
2022-10-04T14:34:47.783Z,21.73
2022-10-04T14:37:20.519Z,21.87
2022-10-04T14:39:47.036Z,21.75
2022-10-04T14:42:45.015Z,21.82
2022-10-04T14:45:35.138Z,21.57
2022-10-04T14:48:11.928Z,21.14
2022-10-04T14:50:58.742Z,21.45
2022-10-04T14:53:47.545Z,21.43
2022-10-04T14:56:57.969Z,21.41
2022-10-04T14:59:54.802Z,21.43
2022-10-04T15:02:36.141Z,21.63
2022-10-04T15:05:28.665Z,21.65
2022-10-04T15:08:13.542Z,21.50
2022-10-04T15:10:50.425Z,21.07
2022-10-04T15:13:20.022Z,21.46
2022-10-04T15:15:46.627Z,21.16
2022-10-04T15:18:33.693Z,21.20
2022-10-04T15:21:21.539Z,21.22
2022-10-04T15:23:54.950Z,21.31
2022-10-04T15:26:21.543Z,21.51
2022-10-04T15:28:52.199Z,21.29
2022-10-04T15:31:44.981Z,21.35
2022-10-04T15:34:52.373Z,21.08
2022-10-04T15:37:19.992Z,21.11
2022-10-04T15:40:40.102Z,21.00
2022-10-04T15:43:23.666Z,21.28
2022-10-04T15:46:25.287Z,20.71
2022-10-04T15:48:51.885Z,20.94
2022-10-04T15:51:34.112Z,20.39
2022-10-04T15:54:30.575Z,20.40
2022-10-04T15:57:04.992Z,20.60
2022-10-04T15:59:45.573Z,20.43
2022-10-04T16:02:44.385Z,20.15
2022-10-04T16:05:21.923Z,20.03
2022-10-04T16:08:10.489Z,20.36
2022-10-04T16:11:07.756Z,19.77
2022-10-04T16:13:54.708Z,19.78
2022-10-04T16:16:44.833Z,19.81
2022-10-04T16:19:50.678Z,19.99
2022-10-04T16:22:35.899Z,19.61
2022-10-04T16:25:24.319Z,19.47
2022-10-04T16:27:56.658Z,19.89
2022-10-04T16:30:37.131Z,19.38
2022-10-04T16:33:30.092Z,19.24
2022-10-04T16:36:16.998Z,19.39
2022-10-04T16:39:07.905Z,19.31
2022-10-04T16:41:41.134Z,19.11
2022-10-04T16:44:29.094Z,18.99
2022-10-04T16:47:01.211Z,19.02
2022-10-04T16:49:47.821Z,18.79
2022-10-04T16:52:22.104Z,18.71
2022-10-04T16:55:20.096Z,18.64
2022-10-04T16:58:44.808Z,18.70
2022-10-04T17:01:23.831Z,18.38
2022-10-04T17:03:55.660Z,18.49
2022-10-04T17:06:48.688Z,18.28
2022-10-04T17:09:16.632Z,18.43
2022-10-04T17:11:58.545Z,18.34
2022-10-04T17:14:55.594Z,18.09
2022-10-04T17:17:41.974Z,18.12
2022-10-04T17:20:24.085Z,18.08
2022-10-04T17:22:57.328Z,18.00
2022-10-04T17:25:28.010Z,18.47
2022-10-04T17:28:00.626Z,18.22
2022-10-04T17:30:30.726Z,18.03
2022-10-04T17:33:21.887Z,18.19
2022-10-04T17:36:41.016Z,18.10
2022-10-04T17:39:33.336Z,18.05
2022-10-04T17:42:15.510Z,17.91
2022-10-04T17:44:49.100Z,18.12
2022-10-04T17:48:00.712Z,18.01
2022-10-04T17:51:02.187Z,17.72
2022-10-04T17:53:52.433Z,17.74
2022-10-04T17:56:37.818Z,17.92
2022-10-04T17:59:13.981Z,17.96
2022-10-04T18:01:44.428Z,17.72
2022-10-04T18:04:26.320Z,17.99
2022-10-04T18:07:24.232Z,17.68
2022-10-04T18:09:58.965Z,17.63
2022-10-04T18:12:52.436Z,17.77
2022-10-04T18:15:19.134Z,17.74
2022-10-04T18:17:49.190Z,17.54
2022-10-04T18:20:53.934Z,17.77
2022-10-04T18:23:29.651Z,17.80
2022-10-04T18:26:11.057Z,17.39
2022-10-04T18:28:37.922Z,17.46
2022-10-04T18:31:20.824Z,17.34
2022-10-04T18:33:50.461Z,17.38
2022-10-04T18:36:28.171Z,17.35
2022-10-04T18:39:18.465Z,17.34
2022-10-04T18:41:58.102Z,17.67
2022-10-04T18:44:29.602Z,17.93
2022-10-04T18:47:00.524Z,17.70
2022-10-04T18:49:33.362Z,17.78
2022-10-04T18:52:17.170Z,17.62
2022-10-04T18:54:47.236Z,17.52
2022-10-04T18:57:26.036Z,17.59
2022-10-04T19:00:17.003Z,17.61
2022-10-04T19:03:08.987Z,17.65
2022-10-04T19:05:54.271Z,17.57
2022-10-04T19:09:15.909Z,17.70
2022-10-04T19:11:57.764Z,17.70
2022-10-04T19:14:53.693Z,17.66
2022-10-04T19:17:28.420Z,17.87
2022-10-04T19:20:19.025Z,17.71
2022-10-04T19:22:57.731Z,17.53
2022-10-04T19:25:34.834Z,17.28
2022-10-04T19:28:07.536Z,17.12
2022-10-04T19:30:48.311Z,17.13
2022-10-04T19:33:23.917Z,17.01
2022-10-04T19:36:31.277Z,16.97
2022-10-04T19:39:22.563Z,17.09
2022-10-04T19:41:57.354Z,17.14
2022-10-04T19:44:40.568Z,17.17
2022-10-04T19:47:58.255Z,16.83
2022-10-04T19:50:35.059Z,17.04
2022-10-04T19:53:31.081Z,16.93
2022-10-04T19:55:59.324Z,17.18
2022-10-04T19:58:44.945Z,16.90
2022-10-04T20:01:16.963Z,16.90
2022-10-04T20:03:44.307Z,17.02
2022-10-04T20:06:26.241Z,16.93
2022-10-04T20:09:02.600Z,16.74
2022-10-04T20:11:51.979Z,16.66
2022-10-04T20:14:21.429Z,16.51
2022-10-04T20:16:53.288Z,16.60
2022-10-04T20:19:41.489Z,16.50
2022-10-04T20:22:08.247Z,16.57
2022-10-04T20:24:37.970Z,16.61
2022-10-04T20:27:28.629Z,16.49
2022-10-04T20:29:57.085Z,16.75
2022-10-04T20:32:26.764Z,16.59
2022-10-04T20:34:55.445Z,16.51
2022-10-04T20:37:42.378Z,16.84
2022-10-04T20:40:09.253Z,16.38
2022-10-04T20:42:39.917Z,16.51
2022-10-04T20:45:09.394Z,16.40
2022-10-04T20:47:57.585Z,16.62
2022-10-04T20:50:39.096Z,16.70
2022-10-04T20:53:28.359Z,16.76
2022-10-04T20:56:26.694Z,16.61
2022-10-04T20:58:55.897Z,16.78
2022-10-04T21:01:37.251Z,16.77
2022-10-04T21:04:34.160Z,16.59
2022-10-04T21:07:05.794Z,16.77
2022-10-04T21:09:34.604Z,16.57
2022-10-04T21:12:02.535Z,16.77
2022-10-04T21:14:31.126Z,16.88
2022-10-04T21:17:02.617Z,16.79
2022-10-04T21:19:32.693Z,16.67
2022-10-04T21:22:03.518Z,17.16
2022-10-04T21:24:37.636Z,17.19
2022-10-04T21:27:06.384Z,16.88
2022-10-04T21:29:33.002Z,17.08
2022-10-04T21:32:00.037Z,16.77
2022-10-04T21:34:51.366Z,16.82
2022-10-04T21:37:16.022Z,16.75
2022-10-04T21:39:43.047Z,16.66
2022-10-04T21:42:10.132Z,17.07
2022-10-04T21:44:36.849Z,16.99
2022-10-04T21:47:03.670Z,17.02
2022-10-04T21:49:30.238Z,16.95
2022-10-04T21:51:56.832Z,16.84
2022-10-04T21:54:23.451Z,17.06
2022-10-04T21:56:50.094Z,16.90
2022-10-04T21:59:17.491Z,16.73
2022-10-04T22:01:44.352Z,16.70
2022-10-04T22:04:11.117Z,16.77
2022-10-04T22:06:37.679Z,16.79
2022-10-04T22:09:04.626Z,16.67
2022-10-04T22:11:31.366Z,16.67
2022-10-04T22:13:57.982Z,16.73
2022-10-04T22:16:24.603Z,16.70
2022-10-04T22:18:51.297Z,16.59
2022-10-04T22:21:17.918Z,16.47
2022-10-04T22:23:45.101Z,16.58
2022-10-04T22:26:17.068Z,16.98
2022-10-04T22:28:51.773Z,16.71
2022-10-04T22:31:27.170Z,16.55
2022-10-04T22:33:54.684Z,16.93
2022-10-04T22:36:38.578Z,17.35
2022-10-04T22:39:08.263Z,16.81
2022-10-04T22:41:57.722Z,16.85
2022-10-04T22:44:29.456Z,16.82
2022-10-04T22:46:58.801Z,16.96
2022-10-04T22:49:27.431Z,16.66
2022-10-04T22:51:56.098Z,16.79
2022-10-04T22:54:31.239Z,16.61
2022-10-04T22:56:58.602Z,16.53
2022-10-04T22:59:44.060Z,16.71
2022-10-04T23:02:17.230Z,17.07
2022-10-04T23:05:04.451Z,16.69
2022-10-04T23:07:33.796Z,16.96
2022-10-04T23:10:04.405Z,16.69
2022-10-04T23:12:30.987Z,16.97
2022-10-04T23:14:57.550Z,16.53
2022-10-04T23:17:34.680Z,16.55
2022-10-04T23:20:10.367Z,16.49
2022-10-04T23:22:37.128Z,16.61
2022-10-04T23:25:16.875Z,16.60
2022-10-04T23:27:45.515Z,16.39
2022-10-04T23:30:18.841Z,16.44
2022-10-04T23:32:50.786Z,16.14
2022-10-04T23:35:23.796Z,16.44
2022-10-04T23:37:50.694Z,16.11
2022-10-04T23:40:22.068Z,15.96
2022-10-04T23:42:50.743Z,16.13
2022-10-04T23:45:41.709Z,16.08
2022-10-04T23:48:11.387Z,16.47
2022-10-04T23:50:40.152Z,16.11
2022-10-04T23:53:19.353Z,16.27
2022-10-04T23:55:46.609Z,16.11
2022-10-04T23:58:15.975Z,16.24
